createdAt,value
2022-11-28T00:01:44.326Z,10.40
2022-11-28T00:04:17.538Z,10.40
2022-11-28T00:06:50.772Z,10.40
2022-11-28T00:09:22.834Z,10.40
2022-11-28T00:11:53.171Z,10.50
2022-11-28T00:14:23.702Z,10.40
2022-11-28T00:16:53.934Z,10.40
2022-11-28T00:19:26.700Z,10.40
2022-11-28T00:21:56.935Z,10.40
2022-11-28T00:24:27.239Z,10.40
2022-11-28T00:26:57.489Z,10.40
2022-11-28T00:29:28.761Z,10.40
2022-11-28T00:31:59.281Z,10.40
2022-11-28T00:34:32.280Z,10.40
2022-11-28T00:37:02.596Z,10.40
2022-11-28T00:39:33.044Z,10.40
2022-11-28T00:42:03.314Z,10.40
2022-11-28T00:44:33.572Z,10.40
2022-11-28T00:47:03.876Z,10.40
2022-11-28T00:49:36.720Z,10.40
2022-11-28T00:52:07.042Z,10.40
2022-11-28T00:54:37.473Z,10.30
2022-11-28T00:57:10.716Z,10.30
2022-11-28T00:59:41.118Z,10.30
2022-11-28T01:02:11.416Z,10.30
2022-11-28T01:04:44.580Z,10.40
2022-11-28T01:07:16.497Z,10.30
2022-11-28T01:09:47.928Z,10.30
2022-11-28T01:12:19.746Z,10.30
2022-11-28T01:14:49.983Z,10.30
2022-11-28T01:17:20.192Z,10.30
2022-11-28T01:19:53.138Z,10.30
2022-11-28T01:22:23.403Z,10.20
2022-11-28T01:24:53.786Z,10.30
2022-11-28T01:27:23.999Z,10.20
2022-11-28T01:29:54.502Z,10.20
2022-11-28T01:32:24.860Z,10.20
2022-11-28T01:34:58.072Z,10.20
2022-11-28T01:37:28.314Z,10.30
2022-11-28T01:39:58.742Z,10.20
2022-11-28T01:42:29.036Z,10.20
2022-11-28T01:45:10.885Z,10.10
2022-11-28T01:47:41.186Z,10.20
2022-11-28T01:50:15.201Z,10.10
2022-11-28T01:52:51.001Z,10.10
2022-11-28T01:55:25.393Z,10.10
2022-11-28T01:57:58.006Z,10.10
2022-11-28T02:00:28.397Z,10.10
2022-11-28T02:03:04.793Z,10.10
2022-11-28T02:05:40.371Z,10.10
2022-11-28T02:08:12.216Z,10.10
2022-11-28T02:10:54.479Z,10.10
2022-11-28T02:13:38.189Z,10.10
2022-11-28T02:16:27.221Z,10.20
2022-11-28T02:19:14.913Z,10.00
2022-11-28T02:22:01.745Z,10.10
2022-11-28T02:25:02.467Z,10.00
2022-11-28T02:28:05.781Z,10.00
2022-11-28T02:30:51.049Z,10.10
2022-11-28T02:33:28.787Z,10.10
2022-11-28T02:36:06.621Z,10.00
2022-11-28T02:38:47.089Z,10.00
2022-11-28T02:41:25.697Z,10.00
2022-11-28T02:44:02.652Z,10.00
2022-11-28T02:46:37.289Z,10.00
2022-11-28T02:49:18.371Z,9.90
2022-11-28T02:51:54.161Z,10.00
2022-11-28T02:54:26.675Z,10.00
2022-11-28T02:56:57.982Z,9.90
2022-11-28T02:59:49.263Z,9.90
2022-11-28T03:02:24.834Z,10.00
2022-11-28T03:05:04.243Z,10.00
2022-11-28T03:07:49.437Z,10.00
2022-11-28T03:10:28.452Z,10.00
2022-11-28T03:13:10.028Z,9.90
2022-11-28T03:15:47.594Z,9.90
2022-11-28T03:18:27.273Z,10.00
2022-11-28T03:21:04.883Z,9.90
2022-11-28T03:23:41.018Z,10.00
2022-11-28T03:26:18.683Z,10.10
2022-11-28T03:28:56.088Z,9.90
2022-11-28T03:31:31.876Z,9.90
2022-11-28T03:34:03.717Z,9.90
2022-11-28T03:36:41.453Z,10.00
2022-11-28T03:39:14.677Z,9.90
2022-11-28T03:41:50.460Z,9.90
2022-11-28T03:44:25.747Z,9.80
2022-11-28T03:46:59.246Z,9.80
2022-11-28T03:49:33.696Z,9.90
2022-11-28T03:52:10.887Z,9.90
2022-11-28T03:54:48.777Z,9.90
2022-11-28T03:57:26.030Z,9.90
2022-11-28T03:59:58.713Z,9.80
2022-11-28T04:02:36.470Z,9.90
2022-11-28T04:05:14.176Z,9.90
2022-11-28T04:07:50.489Z,9.90
2022-11-28T04:10:24.658Z,9.90
2022-11-28T04:13:00.103Z,9.90
2022-11-28T04:15:39.310Z,9.90
2022-11-28T04:18:20.257Z,9.90
2022-11-28T04:20:54.828Z,9.90
2022-11-28T04:23:29.682Z,9.90
2022-11-28T04:26:04.753Z,9.90
2022-11-28T04:28:37.588Z,9.90
2022-11-28T04:31:09.567Z,9.90
2022-11-28T04:33:42.685Z,9.90
2022-11-28T04:36:17.507Z,9.90
2022-11-28T04:38:56.606Z,9.90
2022-11-28T04:41:31.397Z,9.90
2022-11-28T04:44:06.260Z,9.80
2022-11-28T04:46:43.327Z,9.80
2022-11-28T04:49:14.128Z,9.90
2022-11-28T04:51:52.808Z,9.90
2022-11-28T04:54:31.446Z,10.00
2022-11-28T04:57:03.612Z,9.80
2022-11-28T04:59:35.296Z,9.90
2022-11-28T05:02:07.686Z,9.90
2022-11-28T05:04:39.823Z,9.80
2022-11-28T05:07:11.898Z,9.80
2022-11-28T05:09:44.819Z,9.80
2022-11-28T05:12:15.059Z,9.90
2022-11-28T05:14:45.380Z,9.90
2022-11-28T05:17:17.518Z,9.90
2022-11-28T05:19:47.759Z,9.90
2022-11-28T05:22:17.992Z,9.90
2022-11-28T05:24:50.819Z,9.90
2022-11-28T05:27:21.419Z,9.90
2022-11-28T05:29:53.414Z,9.90
2022-11-28T05:32:23.726Z,9.90
2022-11-28T05:34:53.950Z,9.80
2022-11-28T05:37:25.626Z,9.80
2022-11-28T05:39:58.897Z,10.00
2022-11-28T05:42:30.455Z,9.90
2022-11-28T05:45:00.830Z,9.90
2022-11-28T05:47:34.077Z,9.90
2022-11-28T05:50:04.402Z,9.90
2022-11-28T05:52:34.632Z,9.90
2022-11-28T05:55:08.645Z,9.90
2022-11-28T05:57:38.868Z,9.90
2022-11-28T06:00:10.798Z,9.90
2022-11-28T06:02:44.057Z,9.90
2022-11-28T06:05:35.087Z,9.90
2022-11-28T06:08:04.623Z,10.00
2022-11-28T06:10:37.929Z,10.00
2022-11-28T06:13:08.413Z,10.00
2022-11-28T06:15:38.818Z,10.00
2022-11-28T06:18:09.197Z,9.90
2022-11-28T06:20:39.422Z,10.00
2022-11-28T06:23:09.686Z,10.00
2022-11-28T06:25:42.633Z,9.90
2022-11-28T06:28:12.860Z,9.90
2022-11-28T06:30:47.395Z,9.90
2022-11-28T06:33:17.649Z,9.90
2022-11-28T06:35:47.884Z,9.90
2022-11-28T06:38:18.077Z,10.00
2022-11-28T06:40:50.962Z,10.00
2022-11-28T06:43:21.192Z,10.00
2022-11-28T06:45:51.768Z,10.00
2022-11-28T06:48:22.613Z,10.00
2022-11-28T06:50:53.573Z,10.00
2022-11-28T06:53:27.281Z,10.10
2022-11-28T06:56:08.717Z,10.00
2022-11-28T06:58:39.080Z,10.00
2022-11-28T07:01:10.933Z,10.00
2022-11-28T07:03:42.219Z,10.00
2022-11-28T07:06:12.768Z,10.00
2022-11-28T07:08:43.774Z,10.00
2022-11-28T07:11:18.699Z,10.00
2022-11-28T07:13:50.167Z,10.00
2022-11-28T07:16:23.244Z,10.00
2022-11-28T07:18:54.118Z,10.10
2022-11-28T07:21:24.893Z,10.00
2022-11-28T07:23:55.409Z,10.00
2022-11-28T07:26:28.448Z,10.00
2022-11-28T07:29:00.123Z,10.10
2022-11-28T07:31:32.642Z,10.00
2022-11-28T07:34:05.382Z,10.10
2022-11-28T07:36:35.714Z,10.00
2022-11-28T07:39:08.567Z,10.00
2022-11-28T07:41:41.549Z,9.90
2022-11-28T07:44:13.239Z,9.90
2022-11-28T07:46:43.528Z,10.00
2022-11-28T07:49:13.990Z,10.00
2022-11-28T07:51:45.123Z,9.90
2022-11-28T07:54:15.428Z,9.90
2022-11-28T07:59:41.732Z,9.90
2022-11-28T08:02:13.203Z,10.00
2022-11-28T08:04:49.372Z,9.90
2022-11-28T08:07:22.212Z,10.00
2022-11-28T08:09:52.717Z,9.90
2022-11-28T08:12:25.596Z,10.00
2022-11-28T08:14:55.880Z,9.90
2022-11-28T08:17:26.186Z,10.00
2022-11-28T08:19:56.519Z,9.90
2022-11-28T08:22:26.786Z,10.10
2022-11-28T08:24:57.042Z,10.00
2022-11-28T08:27:29.964Z,10.00
2022-11-28T08:30:00.217Z,10.00
2022-11-28T08:32:32.378Z,10.00
2022-11-28T08:35:02.695Z,10.00
2022-11-28T08:37:33.007Z,10.00
2022-11-28T08:40:03.529Z,10.00
2022-11-28T08:42:36.696Z,10.00
2022-11-28T08:45:09.283Z,10.10
2022-11-28T08:47:39.598Z,10.00
2022-11-28T08:50:11.172Z,10.00
2022-11-28T08:52:41.652Z,10.10
2022-11-28T08:55:12.925Z,10.00
2022-11-28T08:57:45.828Z,10.10
2022-11-28T09:00:18.113Z,10.10
2022-11-28T09:02:48.537Z,10.10
2022-11-28T09:05:18.944Z,10.10
2022-11-28T09:07:49.281Z,10.10
2022-11-28T09:10:19.745Z,10.20
2022-11-28T09:12:52.758Z,10.20
2022-11-28T09:15:23.080Z,10.20
2022-11-28T09:17:53.447Z,10.20
2022-11-28T09:20:23.949Z,10.20
2022-11-28T09:22:54.280Z,10.20
2022-11-28T09:25:24.578Z,10.20
2022-11-28T09:27:57.513Z,10.20
2022-11-28T09:30:27.901Z,10.30
2022-11-28T09:32:58.325Z,10.40
2022-11-28T09:35:28.813Z,10.30
2022-11-28T09:38:00.855Z,10.30
2022-11-28T09:40:37.838Z,10.30
2022-11-28T09:43:18.542Z,10.30
2022-11-28T09:45:53.869Z,10.30
2022-11-28T09:48:33.273Z,10.30
2022-11-28T09:51:08.073Z,10.30
2022-11-28T09:53:44.862Z,10.30
2022-11-28T09:56:18.777Z,10.40
2022-11-28T09:58:59.031Z,10.40
2022-11-28T10:01:33.076Z,10.40
2022-11-28T10:04:09.145Z,10.50
2022-11-28T10:06:47.534Z,10.40
2022-11-28T10:09:34.614Z,10.40
2022-11-28T10:12:17.063Z,10.40
2022-11-28T10:15:19.696Z,10.50
2022-11-28T10:18:06.806Z,10.50
2022-11-28T10:20:41.523Z,10.50
2022-11-28T10:23:18.431Z,10.50
2022-11-28T10:25:53.879Z,10.60
2022-11-28T10:28:26.868Z,10.60
2022-11-28T10:31:02.689Z,10.60
2022-11-28T10:33:40.057Z,10.60
2022-11-28T10:36:16.370Z,10.60
2022-11-28T10:38:46.671Z,10.70
2022-11-28T10:41:23.630Z,10.70
2022-11-28T10:44:01.740Z,10.70
2022-11-28T10:46:47.728Z,10.70
2022-11-28T10:49:33.454Z,10.70
2022-11-28T10:52:11.528Z,10.80
2022-11-28T10:54:59.514Z,10.80
2022-11-28T10:57:34.594Z,10.80
2022-11-28T11:00:12.422Z,10.70
2022-11-28T11:02:47.864Z,10.80
2022-11-28T11:05:24.135Z,10.80
2022-11-28T11:07:56.468Z,10.80
2022-11-28T11:10:33.216Z,10.90
2022-11-28T11:13:20.364Z,10.80
2022-11-28T11:15:54.894Z,10.90
2022-11-28T11:18:27.987Z,10.90
2022-11-28T11:21:11.871Z,10.90
2022-11-28T11:23:42.354Z,11.00
2022-11-28T11:26:25.318Z,11.00
2022-11-28T11:28:56.266Z,11.00
2022-11-28T11:31:29.402Z,11.10
2022-11-28T11:34:06.626Z,11.10
2022-11-28T11:36:40.764Z,11.30
2022-11-28T11:39:22.489Z,11.10
2022-11-28T11:41:55.002Z,11.10
2022-11-28T11:44:37.107Z,11.20
2022-11-28T11:47:09.778Z,11.10
2022-11-28T11:49:42.593Z,11.10
2022-11-28T11:52:25.711Z,11.20
2022-11-28T11:55:00.791Z,11.20
2022-11-28T11:57:35.972Z,11.10
2022-11-28T12:00:10.280Z,11.20
2022-11-28T12:02:47.188Z,11.20
2022-11-28T12:05:20.539Z,11.30
2022-11-28T12:08:00.997Z,11.30
2022-11-28T12:10:34.457Z,11.30
2022-11-28T12:13:05.687Z,11.40
2022-11-28T12:15:59.794Z,11.40
2022-11-28T12:18:38.914Z,11.50
2022-11-28T12:21:16.352Z,11.50
2022-11-28T12:24:09.753Z,11.40
2022-11-28T12:26:46.964Z,11.50
2022-11-28T12:29:32.095Z,11.50
2022-11-28T12:32:25.185Z,11.40
2022-11-28T12:35:19.282Z,11.40
2022-11-28T12:38:10.642Z,11.30
2022-11-28T12:40:57.936Z,11.30
2022-11-28T12:43:42.802Z,11.30
2022-11-28T12:46:22.736Z,11.30
2022-11-28T12:49:11.137Z,11.20
2022-11-28T12:51:56.749Z,11.30
2022-11-28T12:54:52.892Z,11.30
2022-11-28T12:57:34.024Z,11.30
2022-11-28T13:00:09.660Z,11.30
2022-11-28T13:02:53.987Z,11.30
2022-11-28T13:05:49.155Z,11.40
2022-11-28T13:08:46.473Z,11.50
2022-11-28T13:11:38.994Z,11.60
2022-11-28T13:14:18.613Z,11.60
2022-11-28T13:16:52.577Z,11.60
2022-11-28T13:19:38.119Z,11.70
2022-11-28T13:22:15.176Z,11.60
2022-11-28T13:24:53.556Z,11.60
2022-11-28T13:27:32.542Z,11.70
2022-11-28T13:30:16.276Z,11.70
2022-11-28T13:32:50.900Z,11.70
2022-11-28T13:35:22.679Z,11.70
2022-11-28T13:40:57.466Z,11.60
2022-11-28T13:43:35.706Z,11.60
2022-11-28T13:46:11.148Z,11.60
2022-11-28T13:49:14.244Z,11.60
2022-11-28T13:51:45.395Z,11.60
2022-11-28T13:54:48.947Z,11.60
2022-11-28T13:57:41.047Z,11.60
2022-11-28T14:00:24.924Z,11.70
2022-11-28T14:03:00.269Z,11.70
2022-11-28T14:05:34.725Z,11.70
2022-11-28T14:08:06.235Z,11.70
2022-11-28T14:10:51.285Z,11.70
2022-11-28T14:13:52.569Z,11.80
2022-11-28T14:16:38.010Z,11.80
2022-11-28T14:19:21.444Z,11.80
2022-11-28T14:22:06.444Z,11.70
2022-11-28T14:24:54.382Z,11.70
2022-11-28T14:27:29.304Z,11.80
2022-11-28T14:30:01.415Z,11.70
2022-11-28T14:32:37.395Z,11.70
2022-11-28T14:35:19.259Z,11.70
2022-11-28T14:37:55.676Z,11.70
2022-11-28T14:41:11.895Z,11.70
2022-11-28T14:43:43.994Z,11.70
2022-11-28T14:46:32.589Z,11.70
2022-11-28T14:49:22.034Z,11.70
2022-11-28T14:52:38.356Z,11.70
2022-11-28T14:55:20.739Z,11.70
2022-11-28T14:58:00.973Z,11.70
2022-11-28T15:00:35.378Z,11.70
2022-11-28T15:03:22.685Z,11.70
2022-11-28T15:05:54.952Z,11.60
2022-11-28T15:08:54.623Z,11.60
2022-11-28T15:12:01.426Z,11.60
2022-11-28T15:14:34.607Z,11.70
2022-11-28T15:17:07.298Z,11.60
2022-11-28T15:19:42.433Z,11.60
2022-11-28T15:22:32.705Z,11.60
2022-11-28T15:25:05.907Z,11.70
2022-11-28T15:27:37.087Z,11.70
2022-11-28T15:30:18.300Z,11.70
2022-11-28T15:32:49.947Z,11.60
2022-11-28T15:35:23.183Z,11.60
2022-11-28T15:37:56.791Z,11.60
2022-11-28T15:40:34.877Z,11.60
2022-11-28T15:43:12.692Z,11.60
2022-11-28T15:45:44.644Z,11.60
2022-11-28T15:48:32.562Z,11.60
2022-11-28T15:51:05.743Z,11.60
2022-11-28T15:53:36.163Z,11.60
2022-11-28T15:56:17.288Z,11.50
2022-11-28T15:58:49.119Z,11.60
2022-11-28T16:01:22.178Z,11.60
2022-11-28T16:03:56.862Z,11.50
2022-11-28T16:06:29.664Z,11.50
2022-11-28T16:09:04.085Z,11.60
2022-11-28T16:11:38.778Z,11.50
2022-11-28T16:14:12.152Z,11.60
2022-11-28T16:16:43.138Z,11.50
2022-11-28T16:19:26.125Z,11.50
2022-11-28T16:21:59.433Z,11.60
2022-11-28T16:24:38.122Z,11.60
2022-11-28T16:27:31.608Z,11.60
2022-11-28T16:30:01.983Z,11.60
2022-11-28T16:32:40.082Z,11.60
2022-11-28T16:35:15.207Z,11.60
2022-11-28T16:37:45.605Z,11.50
2022-11-28T16:40:19.105Z,11.50
2022-11-28T16:42:59.749Z,11.60
2022-11-28T16:45:32.740Z,11.50
2022-11-28T16:48:10.143Z,11.50
2022-11-28T16:50:41.154Z,11.50
2022-11-28T16:53:44.996Z,11.50
2022-11-28T16:56:27.031Z,11.50
2022-11-28T16:59:04.810Z,11.50
2022-11-28T17:01:35.278Z,11.50
2022-11-28T17:04:06.277Z,11.50
2022-11-28T17:06:38.093Z,11.50
2022-11-28T17:09:09.674Z,11.40
2022-11-28T17:11:43.970Z,11.50
2022-11-28T17:14:17.392Z,11.50
2022-11-28T17:16:47.774Z,11.50
2022-11-28T17:19:18.151Z,11.50
2022-11-28T17:21:50.764Z,11.50
2022-11-28T17:24:24.266Z,11.50
2022-11-28T17:26:55.360Z,11.50
2022-11-28T17:29:29.398Z,11.40
2022-11-28T17:32:02.222Z,11.50
2022-11-28T17:34:34.255Z,11.50
2022-11-28T17:37:06.132Z,11.50
2022-11-28T17:39:36.473Z,11.50
2022-11-28T17:42:07.889Z,11.40
2022-11-28T17:44:41.961Z,11.50
2022-11-28T17:47:12.503Z,11.50
2022-11-28T17:49:46.283Z,11.40
2022-11-28T17:52:17.287Z,11.40
2022-11-28T17:54:47.727Z,11.40
2022-11-28T17:57:17.983Z,11.40
2022-11-28T17:59:53.205Z,11.50
2022-11-28T18:02:23.568Z,11.50
2022-11-28T18:04:53.946Z,11.50
2022-11-28T18:07:24.264Z,11.40
2022-11-28T18:09:54.649Z,11.40
2022-11-28T18:12:25.650Z,11.40
2022-11-28T18:15:00.002Z,11.40
2022-11-28T18:17:30.369Z,11.40
2022-11-28T18:20:00.956Z,11.40
2022-11-28T18:22:31.365Z,11.40
2022-11-28T18:25:02.039Z,11.40
2022-11-28T18:27:32.703Z,11.50
2022-11-28T18:30:05.791Z,11.40
2022-11-28T18:32:36.134Z,11.40
2022-11-28T18:35:06.797Z,11.30
2022-11-28T18:37:37.878Z,11.30
2022-11-28T18:40:09.762Z,11.30
2022-11-28T18:42:42.037Z,11.30
2022-11-28T18:45:15.828Z,11.30
2022-11-28T18:47:46.087Z,11.30
2022-11-28T18:50:16.573Z,11.40
2022-11-28T18:52:46.814Z,11.30
2022-11-28T18:55:18.250Z,11.30
2022-11-28T18:57:48.526Z,11.30
2022-11-28T19:00:23.659Z,11.30
2022-11-28T19:02:54.432Z,11.20
2022-11-28T19:05:24.991Z,11.20
2022-11-28T19:07:55.767Z,11.30
2022-11-28T19:10:26.200Z,11.20
2022-11-28T19:12:56.500Z,11.20
2022-11-28T19:15:29.391Z,11.20
2022-11-28T19:17:59.640Z,11.20
2022-11-28T19:20:30.094Z,11.20
2022-11-28T19:23:00.633Z,11.20
2022-11-28T19:25:32.071Z,11.20
2022-11-28T19:28:02.361Z,11.20
2022-11-28T19:30:35.667Z,11.20
2022-11-28T19:33:06.120Z,11.00
2022-11-28T19:35:36.815Z,11.20
2022-11-28T19:38:07.079Z,11.10
2022-11-28T19:40:39.208Z,11.10
2022-11-28T19:43:09.583Z,11.10
2022-11-28T19:45:43.216Z,11.10
2022-11-28T19:48:13.520Z,11.10
2022-11-28T19:50:51.456Z,11.10
2022-11-28T19:53:22.225Z,11.10
2022-11-28T19:55:52.653Z,11.20
2022-11-28T19:58:23.399Z,11.10
2022-11-28T20:00:56.862Z,11.10
2022-11-28T20:03:27.222Z,11.10
2022-11-28T20:05:57.746Z,11.10
2022-11-28T20:08:28.818Z,11.10
2022-11-28T20:10:59.252Z,11.10
2022-11-28T20:13:29.799Z,11.10
2022-11-28T20:16:05.422Z,11.00
2022-11-28T20:18:36.620Z,11.10
2022-11-28T20:21:09.117Z,11.00
2022-11-28T20:23:42.850Z,11.00
2022-11-28T20:26:14.453Z,11.10
2022-11-28T20:28:46.388Z,11.10
2022-11-28T20:31:25.443Z,11.00
2022-11-28T20:33:57.559Z,11.00
2022-11-28T20:36:30.696Z,11.10
2022-11-28T20:39:02.197Z,11.00
2022-11-28T20:41:33.022Z,11.10
2022-11-28T20:44:03.934Z,11.00
2022-11-28T20:46:37.452Z,11.00
2022-11-28T20:49:09.836Z,11.10
2022-11-28T20:51:40.382Z,11.10
2022-11-28T20:54:10.898Z,11.10
2022-11-28T20:57:19.307Z,11.00
2022-11-28T20:59:33.814Z,11.10
2022-11-28T21:02:06.984Z,11.00
2022-11-28T21:04:37.311Z,11.00
2022-11-28T21:07:08.096Z,11.00
2022-11-28T21:09:38.354Z,11.00
2022-11-28T21:12:09.194Z,10.90
2022-11-28T21:14:39.472Z,10.90
2022-11-28T21:17:12.427Z,10.90
2022-11-28T21:19:42.939Z,10.90
2022-11-28T21:22:13.592Z,10.90
2022-11-28T21:24:45.061Z,10.90
2022-11-28T21:27:15.449Z,10.90
2022-11-28T21:29:46.255Z,10.90
2022-11-28T21:32:19.616Z,10.90
2022-11-28T21:34:49.872Z,10.90
2022-11-28T21:37:20.174Z,10.90
2022-11-28T21:39:50.408Z,10.80
2022-11-28T21:42:21.002Z,10.80
2022-11-28T21:44:51.338Z,10.90
2022-11-28T21:47:24.252Z,10.80
2022-11-28T21:49:54.482Z,10.80
2022-11-28T21:52:24.919Z,10.80
2022-11-28T21:54:56.584Z,10.80
2022-11-28T21:57:27.003Z,10.80
2022-11-28T21:59:57.349Z,10.90
2022-11-28T22:02:31.010Z,10.90
2022-11-28T22:05:01.538Z,10.90
2022-11-28T22:07:31.956Z,10.90
2022-11-28T22:10:03.043Z,11.00
2022-11-28T22:12:34.160Z,10.90
2022-11-28T22:15:04.871Z,11.00
2022-11-28T22:17:38.771Z,10.90
2022-11-28T22:20:14.193Z,10.90
2022-11-28T22:22:44.714Z,10.90
2022-11-28T22:25:15.287Z,10.90
2022-11-28T22:27:46.056Z,10.90
2022-11-28T22:30:16.534Z,10.90
2022-11-28T22:32:49.478Z,10.90
2022-11-28T22:35:20.049Z,10.90
2022-11-28T22:37:51.271Z,10.80
2022-11-28T22:40:23.897Z,10.90
2022-11-28T22:42:57.216Z,10.90
2022-11-28T22:45:27.519Z,10.80
2022-11-28T22:48:00.974Z,10.80
2022-11-28T22:50:34.797Z,10.80
2022-11-28T22:53:07.685Z,10.80
2022-11-28T22:55:38.428Z,10.80
2022-11-28T22:58:08.882Z,10.80
2022-11-28T23:00:39.164Z,10.70
2022-11-28T23:03:12.223Z,10.80
2022-11-28T23:05:45.392Z,10.70
2022-11-28T23:08:19.431Z,10.70
2022-11-28T23:10:49.745Z,10.70
2022-11-28T23:13:20.035Z,10.80
2022-11-28T23:15:52.909Z,10.70
2022-11-28T23:18:26.090Z,10.70
2022-11-28T23:20:59.066Z,10.70
2022-11-28T23:23:29.402Z,10.70
2022-11-28T23:26:02.588Z,10.70
2022-11-28T23:28:35.948Z,10.60
2022-11-28T23:31:11.431Z,10.60
2022-11-28T23:33:45.795Z,10.60
2022-11-28T23:36:18.756Z,10.60
2022-11-28T23:38:51.314Z,10.60
2022-11-28T23:41:22.075Z,10.60
2022-11-28T23:43:52.919Z,10.50
2022-11-28T23:46:26.269Z,10.50
2022-11-28T23:48:59.401Z,10.50
2022-11-28T23:51:30.066Z,10.40
2022-11-28T23:54:03.563Z,10.50
2022-11-28T23:56:36.598Z,10.40
2022-11-28T23:59:09.083Z,10.40
